Time;durP1;ratioP1;P1;durP2;ratioP2;P2;SDS_P1;SDS_P2;PMS_P1;PMS_P2;Temp;Humidity;BMP_temperature;BMP_pressure;BME280_temperature;BME280_humidity;BME280_pressure;Samples;Min_cycle;Max_cycle;Signal;HPM_P1;HPM_P2
2023/02/15 00:01:39;;;;;;;42.40;33.23;;;1.70;88.10;;;;;;5016410;28;20182;-88
2023/02/15 00:04:06;;;;;;;35.30;29.50;;;1.60;88.00;;;;;;5015340;28;20179;-88
2023/02/15 00:06:32;;;;;;;38.30;29.60;;;1.60;88.00;;;;;;5015335;28;20207;-88
2023/02/15 00:08:58;;;;;;;32.97;27.93;;;1.60;87.90;;;;;;5016406;28;20184;-89
2023/02/15 00:11:39;;;;;;;33.20;28.67;;;1.60;88.00;;;;;;5015254;28;20264;-88
2023/02/15 00:14:10;;;;;;;225.80;30.83;;;1.70;87.90;;;;;;5014992;28;20173;-88
2023/02/15 00:16:37;;;;;;;34.00;29.17;;;1.70;87.90;;;;;;5014958;28;20288;-89
2023/02/15 00:19:03;;;;;;;63.50;28.07;;;1.70;88.30;;;;;;5014969;28;20178;-89
2023/02/15 00:21:31;;;;;;;47.23;28.50;;;1.70;88.40;;;;;;5014594;28;20284;-89
2023/02/15 00:23:58;;;;;;;113.30;26.80;;;1.70;88.50;;;;;;5014800;28;20182;-89
2023/02/15 00:26:24;;;;;;;120.17;25.37;;;1.60;88.60;;;;;;5014798;28;20284;-89
2023/02/15 00:28:50;;;;;;;63.47;24.23;;;1.50;89.00;;;;;;5014982;28;20181;-88
2023/02/15 00:31:15;;;;;;;29.00;26.00;;;1.50;89.30;;;;;;5015907;28;20315;-89
2023/02/15 00:33:41;;;;;;;41.27;30.07;;;1.50;89.50;;;;;;5014571;28;20739;-88
2023/02/15 00:36:09;;;;;;;46.07;33.93;;;1.40;89.30;;;;;;5014529;28;20296;-88
2023/02/15 00:38:35;;;;;;;63.13;36.77;;;1.30;89.40;;;;;;5014831;28;20177;-88
2023/02/15 00:41:02;;;;;;;181.03;37.77;;;1.30;89.40;;;;;;5016085;28;20166;-89
2023/02/15 00:43:31;;;;;;;136.63;29.03;;;1.20;89.20;;;;;;5014826;28;20202;-89
2023/02/15 00:45:57;;;;;;;135.67;32.17;;;1.10;89.30;;;;;;5014050;28;20268;-88
2023/02/15 00:48:23;;;;;;;151.23;35.60;;;1.10;89.40;;;;;;5016056;28;20223;-88
2023/02/15 00:50:50;;;;;;;199.87;31.77;;;1.00;89.50;;;;;;5014444;28;20177;-89
2023/02/15 00:53:16;;;;;;;41.33;32.80;;;0.90;89.60;;;;;;5015549;28;20173;-89
2023/02/15 00:55:42;;;;;;;89.57;29.67;;;1.00;89.80;;;;;;5014625;28;20197;-89
2023/02/15 00:58:09;;;;;;;32.37;28.60;;;1.00;89.90;;;;;;5014431;28;20553;-89
2023/02/15 01:00:35;;;;;;;47.10;28.03;;;1.00;89.90;;;;;;5015782;28;20189;-89
2023/02/15 01:03:00;;;;;;;177.97;25.20;;;0.90;89.90;;;;;;5014238;28;20189;-88
2023/02/15 01:05:26;;;;;;;226.60;28.00;;;0.90;89.90;;;;;;5015468;28;20178;-89
2023/02/15 01:07:51;;;;;;;30.77;27.40;;;0.80;90.00;;;;;;5014436;28;20181;-89
2023/02/15 01:10:17;;;;;;;34.40;29.53;;;0.80;90.10;;;;;;5014290;28;20216;-89
2023/02/15 01:12:43;;;;;;;43.70;29.40;;;0.80;90.20;;;;;;5014997;28;20310;-89
2023/02/15 01:15:09;;;;;;;31.23;28.03;;;0.80;90.20;;;;;;5014491;28;20197;-89
2023/02/15 01:17:34;;;;;;;96.93;29.40;;;0.90;90.20;;;;;;5013850;28;20174;-91
2023/02/15 01:20:00;;;;;;;35.73;29.07;;;0.90;90.20;;;;;;5013560;28;20173;-90
2023/02/15 01:22:26;;;;;;;33.93;30.33;;;0.90;90.30;;;;;;5013594;28;20220;-89
2023/02/15 01:24:51;;;;;;;145.80;32.97;;;0.90;90.40;;;;;;5013455;28;20640;-90
2023/02/15 01:27:17;;;;;;;60.30;30.50;;;0.90;90.40;;;;;;5013473;28;20204;-90
2023/02/15 01:29:43;;;;;;;101.80;31.63;;;0.90;90.60;;;;;;5013341;28;20557;-90
2023/02/15 01:32:09;;;;;;;121.00;33.87;;;0.90;90.70;;;;;;5013299;28;20243;-90
2023/02/15 01:34:34;;;;;;;59.40;34.07;;;0.90;91.00;;;;;;5013119;28;20177;-90
2023/02/15 01:37:00;;;;;;;187.43;40.83;;;1.00;91.20;;;;;;5013218;28;20189;-90
2023/02/15 01:39:26;;;;;;;220.87;38.87;;;1.10;91.40;;;;;;5013199;28;20307;-90
2023/02/15 01:41:51;;;;;;;141.27;42.63;;;1.10;91.50;;;;;;5013222;28;20189;-90
2023/02/15 01:45:00;;;;;;;188.67;42.53;;;1.10;91.60;;;;;;5013130;28;20208;-89
2023/02/15 01:47:40;;;;;;;183.33;44.73;;;1.10;91.80;;;;;;5012401;28;20192;-91
2023/02/15 01:50:33;;;;;;;250.47;50.13;;;1.10;91.90;;;;;;5013225;28;20173;-90
2023/02/15 01:53:01;;;;;;;238.77;52.70;;;1.20;92.00;;;;;;5013204;28;20678;-89
2023/02/15 01:55:32;;;;;;;195.10;56.70;;;1.10;92.10;;;;;;5013093;28;20209;-90
2023/02/15 01:57:58;;;;;;;203.03;56.63;;;1.20;92.30;;;;;;5014557;28;20592;-89
2023/02/15 02:00:24;;;;;;;228.23;61.60;;;1.20;92.40;;;;;;5012981;28;20177;-90
2023/02/15 02:02:54;;;;;;;167.97;63.57;;;1.30;92.50;;;;;;5013125;28;20207;-89
2023/02/15 02:05:20;;;;;;;205.43;64.43;;;1.30;92.60;;;;;;5012946;28;20178;-90
2023/02/15 02:07:48;;;;;;;226.13;63.63;;;1.30;92.70;;;;;;5012889;28;20189;-88
2023/02/15 02:10:19;;;;;;;239.23;65.10;;;1.40;92.80;;;;;;5012952;28;20190;-90
2023/02/15 02:12:47;;;;;;;257.30;72.17;;;1.30;92.90;;;;;;5012690;28;20209;-90
2023/02/15 02:15:13;;;;;;;195.03;70.93;;;1.40;93.00;;;;;;5012608;28;20240;-89
2023/02/15 02:18:14;;;;;;;247.97;74.23;;;1.40;93.10;;;;;;5013798;28;20187;-89
2023/02/15 02:21:00;;;;;;;226.47;76.93;;;1.40;93.20;;;;;;4959607;28;20345;-89
2023/02/15 02:23:51;;;;;;;188.87;81.30;;;1.40;93.30;;;;;;5012592;28;20181;-90
2023/02/15 02:26:58;;;;;;;165.87;78.13;;;1.40;93.40;;;;;;5013704;28;20280;-90
2023/02/15 02:29:52;;;;;;;178.13;78.93;;;1.50;93.50;;;;;;5007568;28;20195;-89
2023/02/15 02:32:42;;;;;;;161.73;79.87;;;1.50;93.60;;;;;;5012576;28;20616;-90
2023/02/15 02:35:18;;;;;;;155.53;82.53;;;1.50;93.60;;;;;;5012341;28;20212;-90
2023/02/15 02:37:57;;;;;;;182.33;82.70;;;1.50;93.80;;;;;;5012454;28;20169;-89
2023/02/15 02:40:40;;;;;;;144.97;86.23;;;1.50;93.80;;;;;;5012452;28;20221;-90
2023/02/15 02:43:18;;;;;;;101.07;85.80;;;1.50;93.90;;;;;;5012179;28;20197;-91
2023/02/15 02:45:57;;;;;;;242.43;90.57;;;1.50;93.90;;;;;;5013993;28;20216;-90
2023/02/15 02:48:27;;;;;;;93.17;83.83;;;1.50;94.00;;;;;;5012417;28;20651;-90
2023/02/15 02:50:53;;;;;;;131.23;84.37;;;1.50;94.00;;;;;;5012981;28;20180;-90
2023/02/15 02:53:18;;;;;;;127.83;87.77;;;1.50;94.10;;;;;;5012216;28;20212;-90
2023/02/15 02:55:49;;;;;;;177.23;88.20;;;1.50;94.10;;;;;;5012013;28;20254;-91
2023/02/15 02:58:50;;;;;;;132.43;92.03;;;1.60;94.20;;;;;;5012394;28;20161;-90
2023/02/15 03:01:23;;;;;;;281.57;91.43;;;1.60;94.30;;;;;;4990895;28;20280;-88
2023/02/15 03:03:58;;;;;;;145.37;79.60;;;1.70;94.30;;;;;;5014071;28;20158;-89
2023/02/15 03:06:48;;;;;;;157.13;82.83;;;1.60;94.30;;;;;;5012355;28;20264;-91
2023/02/15 03:09:34;;;;;;;201.30;87.37;;;1.60;94.40;;;;;;5013651;28;20174;-90
2023/02/15 03:12:01;;;;;;;155.13;88.80;;;1.70;94.40;;;;;;5017369;28;20185;-89
2023/02/15 03:14:27;;;;;;;94.90;85.87;;;1.60;94.40;;;;;;5015990;28;20231;-88
2023/02/15 03:16:54;;;;;;;130.83;90.27;;;1.60;94.40;;;;;;5015987;28;20204;-89
2023/02/15 03:19:26;;;;;;;186.50;89.87;;;1.60;94.50;;;;;;5016353;28;20179;-90
2023/02/15 03:21:57;;;;;;;156.63;90.83;;;1.60;94.50;;;;;;5017127;28;20199;-89
2023/02/15 03:24:37;;;;;;;130.03;87.03;;;1.60;94.50;;;;;;5015790;28;20199;-90
2023/02/15 03:27:06;;;;;;;178.70;91.83;;;1.60;94.50;;;;;;5016147;28;20195;-89
2023/02/15 03:29:33;;;;;;;131.40;87.53;;;1.60;94.60;;;;;;5015825;28;20170;-91
2023/02/15 03:32:03;;;;;;;134.47;88.87;;;1.60;94.60;;;;;;5015577;28;20212;-89
2023/02/15 03:34:29;;;;;;;137.57;90.63;;;1.60;94.60;;;;;;5017169;28;20177;-90
2023/02/15 03:37:25;;;;;;;132.40;93.17;;;1.60;94.60;;;;;;5015393;28;20207;-91
2023/02/15 03:41:09;;;;;;;158.03;87.33;;;1.70;94.60;;;;;;5008530;28;20185;-91
2023/02/15 03:42:48;;;;;;;158.30;90.47;;;1.70;94.60;;;;;;5016564;28;20280;-91
2023/02/15 03:45:19;;;;;;;102.20;91.03;;;1.70;94.70;;;;;;5015486;28;20666;-91
2023/02/15 03:47:49;;;;;;;128.93;87.90;;;1.60;94.60;;;;;;5015567;28;20169;-92
2023/02/15 03:53:09;;;;;;;124.03;89.80;;;1.60;94.70;;;;;;5016982;28;20209;-91
2023/02/15 03:55:35;;;;;;;186.63;94.67;;;1.70;94.70;;;;;;5015246;28;20236;-92
2023/02/15 04:04:02;;;;;;;165.93;89.20;;;1.60;94.80;;;;;;5016843;28;20212;-90
2023/02/15 04:06:28;;;;;;;156.13;91.63;;;1.50;94.80;;;;;;5015206;28;20169;-88
2023/02/15 04:11:37;;;;;;;137.13;91.83;;;1.50;94.90;;;;;;5016655;28;20223;-91
2023/02/15 04:16:02;;;;;;;101.27;91.80;;;1.50;94.90;;;;;;5014927;28;20647;-90
2023/02/15 04:16:49;;;;;;;153.97;91.43;;;1.50;94.90;;;;;;5015836;28;20213;-89
2023/02/15 04:27:26;;;;;;;125.53;90.37;;;1.40;95.00;;;;;;5016494;28;20258;-91
2023/02/15 04:29:52;;;;;;;139.67;91.47;;;1.40;95.00;;;;;;5014859;28;20177;-91
2023/02/15 04:32:17;;;;;;;136.93;92.80;;;1.40;95.10;;;;;;5014674;28;20194;-90
2023/02/15 04:34:43;;;;;;;116.27;94.30;;;1.50;95.10;;;;;;5015958;28;20536;-91
2023/02/15 04:37:10;;;;;;;130.00;90.30;;;1.50;95.10;;;;;;5015646;28;20201;-91
2023/02/15 04:39:35;;;;;;;137.13;93.00;;;1.50;95.10;;;;;;5014435;28;20173;-91
2023/02/15 04:42:01;;;;;;;141.10;94.07;;;1.40;95.10;;;;;;5014469;28;20204;-91
2023/02/15 04:44:26;;;;;;;180.07;94.53;;;1.30;95.10;;;;;;5015463;28;20173;-91
2023/02/15 04:46:52;;;;;;;172.47;95.87;;;1.30;95.20;;;;;;5014367;28;20181;-90
2023/02/15 04:49:17;;;;;;;152.90;95.90;;;1.30;95.20;;;;;;5014415;28;20181;-91
2023/02/15 04:51:43;;;;;;;133.57;92.00;;;1.40;95.20;;;;;;5014483;28;20564;-91
2023/02/15 04:54:08;;;;;;;154.63;92.07;;;1.30;95.20;;;;;;5014559;28;20188;-91
2023/02/15 04:56:34;;;;;;;120.20;92.20;;;1.20;95.20;;;;;;5014106;28;20201;-91
2023/02/15 04:59:00;;;;;;;234.33;97.90;;;1.20;95.20;;;;;;5014471;28;20173;-92
2023/02/15 05:01:26;;;;;;;106.27;94.93;;;1.30;95.30;;;;;;5014650;28;20196;-91
2023/02/15 05:03:51;;;;;;;151.63;95.87;;;1.30;95.30;;;;;;5015408;28;20228;-92
2023/02/15 05:06:17;;;;;;;130.33;98.03;;;1.30;95.30;;;;;;5013884;28;20184;-91
2023/02/15 05:08:42;;;;;;;127.57;97.50;;;1.30;95.30;;;;;;5014151;28;20647;-92
2023/02/15 05:11:08;;;;;;;138.20;99.43;;;1.30;95.20;;;;;;5014010;28;20248;-91
2023/02/15 05:13:33;;;;;;;126.70;97.67;;;1.20;95.20;;;;;;5013898;28;20280;-90
2023/02/15 05:15:59;;;;;;;147.67;99.60;;;1.10;95.20;;;;;;5013860;28;20209;-93
2023/02/15 05:18:24;;;;;;;100.53;93.53;;;1.20;95.30;;;;;;5014010;28;20174;-92
2023/02/15 05:20:50;;;;;;;177.93;97.23;;;1.20;95.30;;;;;;5015232;28;20209;-92
2023/02/15 05:23:16;;;;;;;152.50;93.67;;;1.20;95.30;;;;;;4997844;28;20559;-92
2023/02/15 05:28:34;;;;;;;139.13;98.67;;;1.00;95.20;;;;;;5015612;28;20227;-92
2023/02/15 05:31:02;;;;;;;152.90;101.53;;;1.00;95.20;;;;;;5013610;28;20185;-91
2023/02/15 05:33:28;;;;;;;129.97;94.73;;;1.00;95.30;;;;;;5013533;28;20189;-91
2023/02/15 05:35:54;;;;;;;133.37;90.00;;;0.90;95.20;;;;;;5014393;28;20212;-90
2023/02/15 05:38:19;;;;;;;102.67;92.57;;;0.90;95.20;;;;;;5013712;28;20696;-89
2023/02/15 05:40:45;;;;;;;136.63;100.93;;;1.00;95.30;;;;;;5013453;28;20174;-92
2023/02/15 05:43:11;;;;;;;200.50;100.10;;;1.00;95.30;;;;;;5013289;28;20268;-92
2023/02/15 05:45:36;;;;;;;126.63;95.50;;;1.00;95.30;;;;;;5013420;28;20191;-92
2023/02/15 05:48:02;;;;;;;127.87;88.60;;;1.00;95.30;;;;;;5013486;28;20236;-93
2023/02/15 05:50:28;;;;;;;128.13;95.07;;;0.80;95.20;;;;;;5013143;28;20195;-92
2023/02/15 05:52:53;;;;;;;109.33;98.17;;;0.90;95.30;;;;;;5013723;28;20205;-91
2023/02/15 05:55:19;;;;;;;177.57;93.33;;;0.90;95.30;;;;;;5014653;28;20751;-92
2023/02/15 05:57:45;;;;;;;204.90;99.40;;;0.80;95.20;;;;;;5013267;28;20607;-91
2023/02/15 06:00:12;;;;;;;208.47;96.83;;;1.00;95.30;;;;;;5013191;28;20173;-92
2023/02/15 06:02:38;;;;;;;134.17;97.00;;;0.90;95.30;;;;;;5013076;28;20193;-91
2023/02/15 06:05:05;;;;;;;172.57;95.67;;;0.80;95.20;;;;;;5013218;28;20187;-91
2023/02/15 06:07:31;;;;;;;188.43;102.17;;;0.90;95.30;;;;;;5013440;28;20223;-92
2023/02/15 06:09:56;;;;;;;131.07;101.67;;;0.90;95.20;;;;;;5012925;28;20264;-90
2023/02/15 06:12:22;;;;;;;103.73;95.90;;;0.90;95.20;;;;;;5013682;28;20280;-91
2023/02/15 06:14:48;;;;;;;104.93;97.00;;;0.80;95.20;;;;;;5012970;28;20706;-91
2023/02/15 06:17:13;;;;;;;174.03;99.70;;;0.90;95.30;;;;;;5012992;28;20200;-90
2023/02/15 06:19:39;;;;;;;200.07;99.57;;;1.00;95.30;;;;;;5014458;28;20256;-91
2023/02/15 06:22:06;;;;;;;109.50;101.27;;;1.10;95.30;;;;;;5012696;28;20216;-91
2023/02/15 06:24:32;;;;;;;114.63;98.60;;;1.00;95.20;;;;;;5012977;28;20192;-91
2023/02/15 06:26:57;;;;;;;162.67;91.17;;;1.00;95.20;;;;;;5012757;28;20290;-91
2023/02/15 06:29:23;;;;;;;105.63;97.53;;;0.90;95.20;;;;;;5013215;28;20177;-92
2023/02/15 06:31:49;;;;;;;143.47;93.33;;;0.90;95.10;;;;;;5012901;28;20201;-91
2023/02/15 06:34:15;;;;;;;229.70;100.37;;;0.90;95.20;;;;;;5013072;28;20263;-91
2023/02/15 06:36:40;;;;;;;210.17;102.67;;;0.90;95.20;;;;;;5012645;28;20205;-91
2023/02/15 06:39:06;;;;;;;183.83;93.90;;;0.80;95.20;;;;;;5014857;28;20179;-92
2023/02/15 06:41:32;;;;;;;166.50;92.53;;;0.60;95.10;;;;;;5012634;28;20672;-92
2023/02/15 06:43:58;;;;;;;185.00;91.90;;;0.70;95.20;;;;;;5011786;28;20177;-92
2023/02/15 06:46:24;;;;;;;103.90;94.37;;;0.70;95.20;;;;;;5012588;28;20181;-91
2023/02/15 06:48:49;;;;;;;133.80;96.87;;;0.80;95.30;;;;;;5012722;28;20559;-90
2023/02/15 06:51:19;;;;;;;137.60;93.57;;;0.90;95.30;;;;;;5014001;28;20200;-91
2023/02/15 06:53:45;;;;;;;155.80;94.67;;;1.00;95.30;;;;;;5012989;28;20235;-93
2023/02/15 06:56:11;;;;;;;131.13;95.83;;;1.00;95.30;;;;;;5012923;28;20615;-92
2023/02/15 06:58:40;;;;;;;115.37;94.03;;;0.90;95.30;;;;;;5012705;28;20180;-92
2023/02/15 07:01:07;;;;;;;211.73;98.53;;;1.00;95.30;;;;;;5012310;28;20247;-90
2023/02/15 07:03:34;;;;;;;157.37;95.07;;;0.90;95.30;;;;;;5012534;28;20177;-90
2023/02/15 07:06:01;;;;;;;224.27;103.57;;;0.80;95.20;;;;;;5012697;28;20177;-91
2023/02/15 07:08:28;;;;;;;164.50;104.87;;;0.90;95.30;;;;;;5012629;28;20237;-91
2023/02/15 07:12:40;;;;;;;140.03;101.97;;;0.80;95.20;;;;;;5012730;28;20204;-91
2023/02/15 07:13:42;;;;;;;112.73;103.77;;;0.70;95.20;;;;;;5013456;28;20177;-91
2023/02/15 07:16:08;;;;;;;141.43;106.17;;;0.90;95.40;;;;;;5013578;28;20205;-91
2023/02/15 07:18:35;;;;;;;154.07;105.70;;;1.00;95.40;;;;;;5012371;28;20710;-91
2023/02/15 07:21:00;;;;;;;142.20;101.87;;;1.00;95.30;;;;;;5012205;28;20262;-91
2023/02/15 07:23:26;;;;;;;150.97;104.17;;;1.00;95.40;;;;;;5012505;28;20297;-92
2023/02/15 07:25:59;;;;;;;115.27;103.53;;;1.00;95.30;;;;;;5012340;28;20221;-90
2023/02/15 07:28:25;;;;;;;132.20;107.60;;;1.00;95.30;;;;;;5013479;28;20267;-92
2023/02/15 07:30:51;;;;;;;160.90;104.03;;;1.10;95.40;;;;;;5012457;28;20251;-92
2023/02/15 07:33:22;;;;;;;197.23;110.33;;;1.10;95.40;;;;;;5013416;28;20636;-92
2023/02/15 07:35:57;;;;;;;183.90;107.63;;;1.20;95.40;;;;;;5012244;28;20207;-91
2023/02/15 07:38:27;;;;;;;154.73;107.47;;;1.10;95.30;;;;;;5012813;28;20176;-91
2023/02/15 07:40:58;;;;;;;161.33;105.00;;;1.00;95.20;;;;;;5013293;28;20165;-91
2023/02/15 07:43:24;;;;;;;158.77;114.20;;;1.10;95.30;;;;;;5012399;28;20671;-91
2023/02/15 07:45:50;;;;;;;129.33;108.37;;;1.00;95.30;;;;;;5012201;28;20173;-91
2023/02/15 07:48:15;;;;;;;120.77;109.57;;;1.00;95.20;;;;;;5013296;28;20189;-91
2023/02/15 07:50:41;;;;;;;114.27;105.80;;;0.80;95.10;;;;;;5012118;28;20569;-92
2023/02/15 07:53:07;;;;;;;175.10;101.97;;;0.80;95.20;;;;;;5012158;28;20204;-94
2023/02/15 07:55:32;;;;;;;177.37;106.80;;;1.00;95.30;;;;;;5013403;28;20208;-91
2023/02/15 07:57:58;;;;;;;145.83;104.90;;;1.00;95.20;;;;;;5015254;28;20177;-90
2023/02/15 08:00:26;;;;;;;117.13;100.73;;;0.90;95.20;;;;;;5015101;28;20174;-92
2023/02/15 08:05:40;;;;;;;176.47;110.20;;;0.90;95.20;;;;;;5017975;28;20169;-90
2023/02/15 08:08:06;;;;;;;143.90;105.00;;;0.90;95.20;;;;;;5015571;28;20242;-91
2023/02/15 08:13:16;;;;;;;116.20;101.37;;;1.00;95.30;;;;;;5017183;28;20172;-92
2023/02/15 08:15:49;;;;;;;139.93;102.63;;;0.80;95.10;;;;;;5015640;28;20215;-92
2023/02/15 08:18:14;;;;;;;111.33;99.10;;;0.70;95.10;;;;;;5017888;28;20164;-91
2023/02/15 08:20:40;;;;;;;113.37;101.47;;;0.80;95.10;;;;;;5016121;28;20327;-93
2023/02/15 08:23:05;;;;;;;154.90;96.07;;;0.90;95.20;;;;;;5015905;28;20201;-92
2023/02/15 08:25:31;;;;;;;152.30;95.87;;;0.70;95.10;;;;;;5017315;28;20669;-92
2023/02/15 08:27:56;;;;;;;129.27;90.87;;;0.60;95.10;;;;;;5016816;28;20224;-92
2023/02/15 08:30:22;;;;;;;99.73;92.37;;;0.60;95.20;;;;;;5016621;28;20176;-91
2023/02/15 08:32:48;;;;;;;110.70;97.63;;;0.70;95.30;;;;;;5016424;28;20215;-92
2023/02/15 08:35:13;;;;;;;140.37;94.53;;;0.80;95.30;;;;;;5017049;28;20235;-93
2023/02/15 08:37:39;;;;;;;133.53;97.37;;;0.80;95.30;;;;;;5016193;28;20204;-92
2023/02/15 08:40:05;;;;;;;176.03;98.97;;;0.70;95.30;;;;;;5016281;28;20261;-92
2023/02/15 08:42:33;;;;;;;188.13;103.53;;;0.80;95.40;;;;;;5015760;28;20244;-93
2023/02/15 08:44:59;;;;;;;147.27;102.57;;;1.00;95.40;;;;;;5019151;28;20191;-91
2023/02/15 08:47:24;;;;;;;133.73;97.83;;;1.00;95.40;;;;;;5017702;28;20184;-93
2023/02/15 08:49:51;;;;;;;236.07;99.73;;;0.90;95.30;;;;;;5016841;28;20196;-90
2023/02/15 08:52:16;;;;;;;150.90;97.33;;;0.90;95.40;;;;;;5016359;28;20208;-92
2023/02/15 08:54:42;;;;;;;170.20;100.43;;;1.00;95.40;;;;;;5016892;28;20170;-92
2023/02/15 08:57:09;;;;;;;135.37;99.60;;;1.00;95.40;;;;;;5016933;28;20690;-91
2023/02/15 08:59:35;;;;;;;171.20;103.80;;;1.00;95.40;;;;;;5016295;28;20544;-91
2023/02/15 09:02:01;;;;;;;109.67;98.63;;;1.00;95.50;;;;;;5016839;28;20293;-91
2023/02/15 09:04:26;;;;;;;205.30;100.03;;;1.20;95.50;;;;;;5016778;28;20205;-90
2023/02/15 09:06:52;;;;;;;271.87;107.20;;;1.30;95.50;;;;;;5016614;28;20173;-92
2023/02/15 09:09:18;;;;;;;150.33;109.07;;;1.30;95.50;;;;;;5017112;28;20195;-92
2023/02/15 09:11:46;;;;;;;153.27;113.00;;;1.40;95.50;;;;;;5016546;28;20219;-93
2023/02/15 09:14:15;;;;;;;141.43;113.70;;;1.50;95.60;;;;;;5015977;28;20181;-91
2023/02/15 09:16:44;;;;;;;175.93;108.33;;;1.40;95.50;;;;;;5015239;28;20291;-92
2023/02/15 09:19:10;;;;;;;125.57;112.43;;;1.40;95.50;;;;;;5016024;28;20642;-90
2023/02/15 09:21:37;;;;;;;120.20;111.20;;;1.60;95.60;;;;;;5015798;28;20223;-89
2023/02/15 09:24:06;;;;;;;122.77;110.50;;;1.50;95.50;;;;;;5015252;28;20670;-92
2023/02/15 09:26:34;;;;;;;138.13;106.80;;;1.60;95.50;;;;;;5016312;28;20199;-90
2023/02/15 09:29:03;;;;;;;125.63;115.40;;;1.60;95.50;;;;;;5017203;28;20180;-92
2023/02/15 09:31:31;;;;;;;126.87;113.23;;;1.70;95.60;;;;;;5021457;28;20196;-91
2023/02/15 09:33:58;;;;;;;143.57;128.23;;;1.70;95.50;;;;;;5026377;28;20422;-92
2023/02/15 09:36:26;;;;;;;136.60;122.53;;;1.60;95.50;;;;;;5021642;28;20201;-90
2023/02/15 09:38:55;;;;;;;132.63;118.07;;;1.80;95.60;;;;;;5030263;28;20174;-92
2023/02/15 09:41:57;;;;;;;128.97;116.47;;;1.70;95.50;;;;;;5027112;28;20193;-92
2023/02/15 09:44:40;;;;;;;127.90;115.70;;;1.60;95.50;;;;;;4973110;28;20189;-92
2023/02/15 09:47:39;;;;;;;166.27;115.00;;;1.60;95.50;;;;;;5017822;28;20183;-91
2023/02/15 09:50:58;;;;;;;124.70;112.63;;;1.50;95.50;;;;;;5022423;28;20177;-92
2023/02/15 09:53:57;;;;;;;121.17;107.93;;;1.60;95.60;;;;;;4927857;29;20182;-93
2023/02/15 09:56:39;;;;;;;117.10;104.30;;;1.80;95.70;;;;;;5016177;28;20196;-90
2023/02/15 09:59:42;;;;;;;139.70;105.23;;;1.50;95.50;;;;;;5014664;28;20171;-91
2023/02/15 10:02:10;;;;;;;111.67;100.70;;;1.70;95.70;;;;;;5014216;28;20196;-92
2023/02/15 10:04:54;;;;;;;120.07;108.83;;;1.70;95.70;;;;;;5014893;28;20169;-91
2023/02/15 10:07:27;;;;;;;123.50;111.27;;;1.80;95.70;;;;;;5013718;28;20200;-90
2023/02/15 10:10:34;;;;;;;179.87;115.30;;;1.80;95.60;;;;;;5013667;28;20201;-90
2023/02/15 10:13:41;;;;;;;121.10;108.47;;;1.80;95.70;;;;;;4919097;29;20763;-92
2023/02/15 10:16:21;;;;;;;138.33;108.73;;;1.80;95.70;;;;;;5013484;28;20207;-91
2023/02/15 10:19:18;;;;;;;123.67;106.30;;;1.80;95.70;;;;;;5012359;28;20619;-91
2023/02/15 10:22:02;;;;;;;115.73;101.27;;;1.80;95.80;;;;;;5016161;28;20617;-93
2023/02/15 10:24:52;;;;;;;128.43;101.33;;;1.90;95.80;;;;;;5024076;28;20256;-93
2023/02/15 11:03:47;;;;;;;171.97;112.20;;;2.30;96.00;;;;;;4357387;26;20204;-88
2023/02/15 11:06:16;;;;;;;266.67;115.53;;;2.40;96.00;;;;;;5038544;28;20160;-90
2023/02/15 11:08:57;;;;;;;172.97;108.93;;;2.40;96.00;;;;;;5038292;28;20177;-90
2023/02/15 11:11:40;;;;;;;174.50;110.73;;;2.40;96.00;;;;;;5038231;28;20189;-91
2023/02/15 11:14:23;;;;;;;183.23;106.50;;;2.30;95.90;;;;;;5038347;28;20172;-88
2023/02/15 11:16:56;;;;;;;148.97;103.47;;;2.40;96.00;;;;;;5037169;28;20189;-90
2023/02/15 11:19:37;;;;;;;186.87;107.87;;;2.30;96.00;;;;;;5036359;28;20157;-90
2023/02/15 11:22:05;;;;;;;171.07;111.10;;;2.40;96.00;;;;;;5034720;28;20232;-91
2023/02/15 11:24:35;;;;;;;138.50;108.73;;;2.50;96.00;;;;;;5026388;28;20177;-92
2023/02/15 11:27:18;;;;;;;145.93;108.70;;;2.50;96.10;;;;;;5023408;28;20200;-92
2023/02/15 11:29:58;;;;;;;170.27;109.50;;;2.70;96.10;;;;;;5023832;28;20172;-90
2023/02/15 11:32:45;;;;;;;207.50;118.43;;;2.80;96.10;;;;;;5038238;28;20195;-88
2023/02/15 11:35:11;;;;;;;168.53;112.00;;;2.80;96.10;;;;;;5041751;28;20158;-91
2023/02/15 11:37:45;;;;;;;174.27;116.23;;;2.70;96.10;;;;;;5037756;28;20199;-91
2023/02/15 11:40:29;;;;;;;157.17;111.57;;;2.90;96.20;;;;;;5032411;28;20185;-90
2023/02/15 11:42:58;;;;;;;146.77;111.63;;;2.80;96.10;;;;;;5041712;28;20177;-90
2023/02/15 11:45:34;;;;;;;155.43;117.17;;;2.80;96.10;;;;;;5041686;28;20149;-90
2023/02/15 11:48:00;;;;;;;158.70;116.27;;;2.90;96.20;;;;;;5041672;28;20157;-89
2023/02/15 11:50:29;;;;;;;138.07;114.20;;;3.00;96.20;;;;;;5041212;28;20166;-91
2023/02/15 11:53:24;;;;;;;154.33;118.33;;;3.20;96.20;;;;;;5041504;28;20265;-91
2023/02/15 11:55:53;;;;;;;219.57;115.07;;;3.10;96.20;;;;;;5041354;28;20202;-88
2023/02/15 11:58:33;;;;;;;166.73;118.77;;;3.30;96.20;;;;;;5041549;28;20166;-89
2023/02/15 12:01:08;;;;;;;158.17;117.00;;;3.10;96.10;;;;;;5041269;28;20165;-92
2023/02/15 12:03:49;;;;;;;201.63;118.03;;;3.00;96.10;;;;;;5041288;28;20182;-91
2023/02/15 12:06:28;;;;;;;175.80;128.97;;;3.30;96.20;;;;;;5041404;28;20159;-91
2023/02/15 12:09:14;;;;;;;211.13;124.47;;;3.20;96.20;;;;;;5040788;28;20181;-91
2023/02/15 12:11:40;;;;;;;220.40;124.00;;;3.10;96.10;;;;;;5039481;28;20213;-91
2023/02/15 12:14:16;;;;;;;145.37;126.53;;;3.30;96.20;;;;;;5025062;28;20656;-89
2023/02/15 12:16:53;;;;;;;140.73;125.67;;;3.30;96.20;;;;;;5016834;28;20218;-90
2023/02/15 12:19:30;;;;;;;198.43;132.23;;;3.60;96.30;;;;;;5015117;28;20173;-90
2023/02/15 12:21:56;;;;;;;189.93;132.20;;;3.60;96.30;;;;;;5016981;28;20630;-91
2023/02/15 12:24:27;;;;;;;239.17;133.07;;;3.80;96.30;;;;;;5015094;28;20177;-89
2023/02/15 12:27:18;;;;;;;175.80;137.00;;;4.10;96.30;;;;;;5015474;28;20275;-89
2023/02/15 12:30:19;;;;;;;187.13;139.13;;;4.00;96.20;;;;;;5014686;28;20232;-89
2023/02/15 12:32:53;;;;;;;216.10;137.37;;;4.10;96.20;;;;;;5011730;28;20225;-91
2023/02/15 12:35:31;;;;;;;164.67;137.10;;;4.00;96.10;;;;;;5014631;28;20567;-90
2023/02/15 12:38:26;;;;;;;147.67;132.53;;;4.00;96.10;;;;;;5014748;28;20225;-90
2023/02/15 12:41:21;;;;;;;191.50;136.23;;;4.10;96.10;;;;;;5013872;28;20190;-90
2023/02/15 12:43:46;;;;;;;149.47;133.73;;;3.90;96.00;;;;;;5015937;28;20169;-91
2023/02/15 12:46:17;;;;;;;221.97;137.13;;;4.00;96.00;;;;;;5014583;28;20206;-89
2023/02/15 12:48:43;;;;;;;191.30;135.67;;;4.00;95.90;;;;;;5014330;28;20555;-91
2023/02/15 12:51:13;;;;;;;238.10;135.07;;;4.20;96.00;;;;;;5014427;28;20299;-90
2023/02/15 12:53:39;;;;;;;208.63;134.83;;;4.00;95.90;;;;;;5014242;28;20177;-90
2023/02/15 12:56:08;;;;;;;147.80;132.50;;;4.20;95.90;;;;;;5014166;28;20670;-90
2023/02/15 12:58:35;;;;;;;229.80;135.20;;;4.50;96.00;;;;;;5014041;28;20173;-90
2023/02/15 13:01:08;;;;;;;192.60;131.13;;;4.70;96.10;;;;;;5014851;28;20201;-90
2023/02/15 13:03:35;;;;;;;175.37;132.67;;;4.50;95.80;;;;;;5013811;28;20295;-90
2023/02/15 13:06:07;;;;;;;150.90;128.63;;;4.30;95.60;;;;;;5013803;28;20180;-90
2023/02/15 13:08:38;;;;;;;192.23;129.70;;;4.60;95.80;;;;;;5014183;28;20179;-90
2023/02/15 13:11:04;;;;;;;162.63;125.83;;;4.80;95.90;;;;;;5015050;28;20172;-90
2023/02/15 13:13:37;;;;;;;167.03;124.87;;;4.60;95.60;;;;;;5013714;28;20667;-90
2023/02/15 13:16:12;;;;;;;156.93;121.67;;;4.70;95.60;;;;;;5013750;28;20228;-90
2023/02/15 13:18:38;;;;;;;156.10;121.47;;;4.90;95.70;;;;;;5015112;28;20706;-90
2023/02/15 13:21:18;;;;;;;160.20;120.60;;;4.70;95.40;;;;;;5013580;28;20173;-90
2023/02/15 13:23:51;;;;;;;137.50;118.73;;;4.90;95.50;;;;;;5014926;28;20177;-89
2023/02/15 13:26:21;;;;;;;131.90;119.40;;;4.80;95.30;;;;;;5013587;28;20164;-90
2023/02/15 13:28:52;;;;;;;129.10;115.17;;;5.20;95.50;;;;;;5013608;28;20181;-90
2023/02/15 13:31:20;;;;;;;122.57;110.57;;;5.20;95.30;;;;;;5013432;28;20254;-90
2023/02/15 13:33:51;;;;;;;170.73;110.57;;;5.00;95.10;;;;;;5014636;28;20166;-90
2023/02/15 13:36:22;;;;;;;163.07;110.30;;;5.00;95.00;;;;;;5014179;28;20358;-90
2023/02/15 13:39:07;;;;;;;164.77;116.80;;;4.80;94.80;;;;;;5014180;28;20168;-90
2023/02/15 13:41:45;;;;;;;159.60;115.13;;;4.70;94.80;;;;;;5013647;28;20280;-90
2023/02/15 13:44:44;;;;;;;127.57;114.93;;;4.90;94.90;;;;;;5013340;28;20582;-90
2023/02/15 13:47:22;;;;;;;132.87;118.73;;;5.10;94.90;;;;;;5013197;28;20225;-90
2023/02/15 13:49:59;;;;;;;130.23;116.63;;;5.30;94.80;;;;;;5013121;28;20197;-90